Time;durP1;ratioP1;P1;durP2;ratioP2;P2;SDS_P1;SDS_P2;PMS_P1;PMS_P2;Temp;Humidity;BMP_temperature;BMP_pressure;BME280_temperature;BME280_humidity;BME280_pressure;Samples;Min_cycle;Max_cycle;Signal;HPM_P1;HPM_P2
2023/03/30 00:01:57;0.00;0.00;0.62;0.00;0.00;0.62;2.60;1.93;;;23.80;23.80;;;;;;2272244;61;20652;-62
2023/03/30 00:04:42;0.00;0.00;0.62;0.00;0.00;0.62;2.07;1.47;;;23.90;23.90;;;;;;2273065;61;20378;-62
2023/03/30 00:07:29;0.00;0.00;0.62;0.00;0.00;0.62;1.80;1.47;;;23.90;23.90;;;;;;2272633;61;20382;-62
2023/03/30 00:10:16;0.00;0.00;0.62;0.00;0.00;0.62;2.10;1.57;;;23.80;23.80;;;;;;2272088;61;20924;-62
2023/03/30 00:13:01;0.00;0.00;0.62;0.00;0.00;0.62;1.97;1.53;;;23.80;23.80;;;;;;2272823;61;20897;-64
2023/03/30 00:15:46;0.00;0.00;0.62;0.00;0.00;0.62;2.20;1.47;;;23.80;23.80;;;;;;2272279;60;20469;-62
2023/03/30 00:18:30;0.00;0.00;0.62;0.00;0.00;0.62;2.07;1.57;;;23.90;23.90;;;;;;2272562;61;20875;-62
2023/03/30 00:21:16;0.00;0.00;0.62;0.00;0.00;0.62;2.00;1.60;;;23.90;23.90;;;;;;2273065;61;20407;-62
2023/03/30 00:24:03;0.00;0.00;0.62;0.00;0.00;0.62;2.43;1.70;;;23.90;23.90;;;;;;2271805;61;20375;-64
2023/03/30 00:26:47;0.00;0.00;0.62;0.00;0.00;0.62;1.70;1.23;;;23.80;23.80;;;;;;2273165;61;20394;-62
2023/03/30 00:29:32;0.00;0.00;0.62;0.00;0.00;0.62;2.60;1.63;;;23.80;24.10;;;;;;2272253;61;20385;-62
2023/03/30 00:32:17;0.00;0.00;0.62;0.00;0.00;0.62;1.77;1.40;;;23.90;23.90;;;;;;2268938;61;20883;-62
2023/03/30 00:35:04;0.00;0.00;0.62;0.00;0.00;0.62;2.40;1.50;;;23.80;23.80;;;;;;2272723;61;20411;-63
2023/03/30 00:37:50;0.00;0.00;0.62;0.00;0.00;0.62;2.03;1.37;;;23.80;23.80;;;;;;2272493;61;20954;-67
2023/03/30 00:40:37;0.00;0.00;0.62;0.00;0.00;0.62;2.30;1.33;;;23.80;23.80;;;;;;2269009;61;20844;-62
2023/03/30 00:43:22;0.00;0.00;0.62;0.00;0.00;0.62;2.23;1.50;;;23.80;23.80;;;;;;2269611;61;20387;-63
2023/03/30 00:46:07;0.00;0.00;0.62;0.00;0.00;0.62;2.03;1.40;;;23.90;23.90;;;;;;2271779;61;20850;-62
2023/03/30 00:48:56;0.00;0.00;0.62;0.00;0.00;0.62;2.13;1.53;;;23.90;23.90;;;;;;2269341;61;20362;-62
2023/03/30 00:51:42;0.00;0.00;0.62;0.00;0.00;0.62;2.13;1.50;;;23.80;23.90;;;;;;2269259;61;20408;-67
2023/03/30 00:54:26;0.00;0.00;0.62;0.00;0.00;0.62;2.20;1.30;;;23.80;23.80;;;;;;2268909;61;20412;-62
2023/03/30 00:57:13;0.00;0.00;0.62;0.00;0.00;0.62;1.90;1.40;;;23.90;23.90;;;;;;2269513;61;20423;-62
2023/03/30 00:59:58;0.00;0.00;0.62;0.00;0.00;0.62;2.00;1.40;;;23.80;23.80;;;;;;2268875;61;20390;-63
2023/03/30 01:02:52;0.00;0.00;0.62;0.00;0.00;0.62;1.67;1.07;;;23.80;23.80;;;;;;2272626;61;20358;-62
2023/03/30 01:05:40;0.00;0.00;0.62;0.00;0.00;0.62;2.17;1.57;;;23.80;23.90;;;;;;2273158;61;20751;-62
2023/03/30 01:08:31;0.00;0.00;0.62;0.00;0.00;0.62;1.73;1.13;;;23.80;23.90;;;;;;2272047;61;20402;-62
2023/03/30 01:11:15;0.00;0.00;0.62;0.00;0.00;0.62;1.80;1.50;;;23.80;23.80;;;;;;2272747;61;20912;-63
2023/03/30 01:14:05;0.00;0.00;0.62;0.00;0.00;0.62;1.60;1.33;;;23.80;23.80;;;;;;2272367;61;20354;-63
2023/03/30 01:17:00;0.00;0.00;0.62;0.00;0.00;0.62;1.70;1.20;;;23.90;23.90;;;;;;2272198;47;20403;-63
2023/03/30 01:20:28;0.00;0.00;0.62;0.00;0.00;0.62;2.23;1.93;;;23.80;23.90;;;;;;2265181;61;20379;-62
2023/03/30 01:24:02;0.00;0.00;0.62;0.00;0.00;0.62;1.90;1.20;;;23.90;23.90;;;;;;2266942;61;20398;-62
2023/03/30 01:26:58;0.00;0.00;0.62;0.00;0.00;0.62;1.80;1.17;;;23.80;23.90;;;;;;2268333;61;20791;-63
2023/03/30 01:30:13;0.00;0.00;0.62;0.00;0.00;0.62;1.80;1.27;;;23.80;23.90;;;;;;2267961;61;20406;-62
2023/03/30 01:33:43;0.00;0.00;0.62;0.00;0.00;0.62;1.70;1.30;;;23.80;23.90;;;;;;2268348;61;20466;-62
2023/03/30 01:37:08;0.00;0.00;0.62;0.00;0.00;0.62;1.77;1.20;;;23.80;23.90;;;;;;2263755;61;20423;-64
2023/03/30 01:39:58;0.00;0.00;0.62;0.00;0.00;0.62;1.90;1.40;;;23.80;23.90;;;;;;2268170;61;20521;-63
2023/03/30 01:42:55;0.00;0.00;0.62;0.00;0.00;0.62;1.70;1.37;;;23.80;23.90;;;;;;2268813;61;20363;-66
2023/03/30 01:45:45;0.00;0.00;0.62;0.00;0.00;0.62;1.87;1.30;;;23.80;23.90;;;;;;2268037;61;20769;-63
2023/03/30 01:48:38;0.00;0.00;0.62;0.00;0.00;0.62;2.00;1.30;;;23.80;23.90;;;;;;2269000;61;20355;-63
2023/03/30 01:51:31;0.00;0.00;0.62;0.00;0.00;0.62;1.70;1.20;;;23.80;23.90;;;;;;2264838;61;20821;-63
2023/03/30 01:54:21;0.00;0.00;0.62;0.00;0.00;0.62;2.27;1.47;;;23.80;23.90;;;;;;2268188;61;20405;-61
2023/03/30 01:57:14;0.00;0.00;0.62;0.00;0.00;0.62;1.87;1.20;;;23.80;23.90;;;;;;2265523;61;20387;-62
2023/03/30 02:00:13;0.00;0.00;0.62;0.00;0.00;0.62;1.67;1.10;;;23.80;23.90;;;;;;2263949;61;20383;-62
2023/03/30 02:03:05;0.00;0.00;0.62;0.00;0.00;0.62;1.60;1.30;;;23.80;23.90;;;;;;2268711;61;20378;-62
2023/03/30 02:05:55;0.00;0.00;0.62;0.00;0.00;0.62;1.60;1.00;;;23.80;23.90;;;;;;2265048;61;20371;-62
2023/03/30 02:08:41;0.00;0.00;0.62;0.00;0.00;0.62;1.70;1.20;;;23.80;23.90;;;;;;2268233;61;20386;-62
2023/03/30 02:11:30;0.00;0.00;0.62;0.00;0.00;0.62;1.77;1.40;;;23.80;23.90;;;;;;2268669;61;20358;-62
2023/03/30 02:14:21;0.00;0.00;0.62;0.00;0.00;0.62;1.63;1.10;;;23.80;23.90;;;;;;2267638;61;20895;-63
2023/03/30 02:17:12;0.00;0.00;0.62;0.00;0.00;0.62;1.53;1.17;;;23.80;23.90;;;;;;2265392;61;20391;-62
2023/03/30 02:19:58;0.00;0.00;0.62;0.00;0.00;0.62;1.80;1.23;;;23.80;23.90;;;;;;2268214;61;20415;-62
2023/03/30 02:22:43;0.00;0.00;0.62;0.00;0.00;0.62;1.67;1.20;;;23.80;23.90;;;;;;2264819;61;20359;-64
2023/03/30 02:25:28;0.00;0.00;0.62;0.00;0.00;0.62;1.73;1.23;;;23.80;23.90;;;;;;2268757;61;20359;-66
2023/03/30 02:28:13;0.00;0.00;0.62;0.00;0.00;0.62;1.60;1.00;;;23.80;23.90;;;;;;2265099;61;20976;-62
2023/03/30 02:30:59;0.00;0.00;0.62;0.00;0.00;0.62;1.90;1.40;;;23.80;23.90;;;;;;2264235;61;20351;-62
2023/03/30 02:34:03;0.00;0.00;0.62;0.00;0.00;0.62;2.47;1.33;;;23.80;23.90;;;;;;2267971;61;20513;-61
2023/03/30 02:37:15;0.00;0.00;0.62;0.00;0.00;0.62;2.10;1.23;;;23.80;23.90;;;;;;2267238;61;20398;-67
2023/03/30 02:40:20;0.00;0.00;0.62;0.00;0.00;0.62;1.60;1.03;;;23.80;23.90;;;;;;2268094;61;20432;-63
2023/03/30 02:43:25;0.00;0.00;0.62;0.00;0.00;0.62;1.93;1.10;;;23.80;23.90;;;;;;2264767;61;20355;-63
2023/03/30 02:46:35;0.00;0.00;0.62;0.00;0.00;0.62;1.40;0.80;;;23.80;23.90;;;;;;2265126;61;20911;-64
2023/03/30 02:49:33;0.00;0.00;0.62;0.00;0.00;0.62;2.17;1.47;;;23.80;23.90;;;;;;2265658;61;20393;-63
2023/03/30 02:52:35;0.00;0.00;0.62;0.00;0.00;0.62;2.00;1.07;;;23.80;23.90;;;;;;2268721;61;20354;-64
2023/03/30 02:55:27;0.00;0.00;0.62;0.00;0.00;0.62;1.50;0.90;;;23.80;24.00;;;;;;2266022;61;20680;-67
2023/03/30 02:58:43;0.00;0.00;0.62;0.00;0.00;0.62;1.57;1.10;;;23.80;23.90;;;;;;2265355;61;20429;-62
2023/03/30 03:01:41;0.00;0.00;0.62;0.00;0.00;0.62;1.57;0.97;;;23.80;24.00;;;;;;2269536;61;20455;-64
2023/03/30 03:04:34;0.00;0.00;0.62;0.00;0.00;0.62;1.60;1.00;;;23.80;24.00;;;;;;2265357;61;20354;-62
2023/03/30 03:07:43;0.00;0.00;0.62;0.00;0.00;0.62;1.50;0.90;;;23.80;23.90;;;;;;2251438;61;20466;-62
2023/03/30 03:10:29;0.00;0.00;0.62;0.00;0.00;0.62;1.40;0.97;;;23.80;24.00;;;;;;2265406;61;20653;-62
2023/03/30 03:13:15;0.00;0.00;0.62;0.00;0.00;0.62;1.60;1.00;;;23.80;23.90;;;;;;2265583;61;20901;-62
2023/03/30 03:16:01;0.00;0.00;0.62;0.00;0.00;0.62;1.70;1.07;;;23.80;24.00;;;;;;2265594;61;20934;-62
2023/03/30 03:18:49;0.00;0.00;0.62;0.00;0.00;0.62;1.80;1.10;;;23.80;23.90;;;;;;2265682;61;20417;-62
2023/03/30 03:21:34;0.00;0.00;0.62;0.00;0.00;0.62;1.53;1.00;;;23.80;24.00;;;;;;2265088;61;20371;-62
2023/03/30 03:24:19;0.00;0.00;0.62;0.00;0.00;0.62;1.80;1.30;;;23.80;24.00;;;;;;2265841;61;20410;-63
2023/03/30 03:27:31;0.00;0.00;0.62;0.00;0.00;0.62;1.80;1.00;;;23.80;24.00;;;;;;2268670;61;20783;-63
2023/03/30 03:30:37;0.00;0.00;0.62;0.00;0.00;0.62;1.73;1.00;;;23.80;24.00;;;;;;2265038;61;20439;-63
2023/03/30 03:33:33;0.00;0.00;0.62;0.00;0.00;0.62;1.40;0.93;;;23.80;24.00;;;;;;2265859;61;20434;-62
2023/03/30 03:36:28;0.00;0.00;0.62;0.00;0.00;0.62;1.47;0.87;;;23.80;24.00;;;;;;2264902;61;20398;-62
2023/03/30 03:39:13;0.00;0.00;0.62;0.00;0.00;0.62;1.60;1.07;;;23.80;24.00;;;;;;2265276;61;20405;-62
2023/03/30 03:41:58;0.00;0.00;0.62;0.00;0.00;0.62;1.80;1.30;;;23.80;24.00;;;;;;2265398;61;20374;-62
2023/03/30 03:44:43;0.00;0.00;0.62;0.00;0.00;0.62;1.50;1.00;;;23.80;24.00;;;;;;2265238;61;20363;-62
2023/03/30 03:47:30;0.00;0.00;0.62;0.00;0.00;0.62;1.90;1.17;;;23.80;24.00;;;;;;2265821;61;20774;-64
2023/03/30 03:50:15;0.00;0.00;0.62;0.00;0.00;0.62;1.83;1.00;;;23.80;24.00;;;;;;2264795;61;20899;-62
2023/03/30 03:53:01;0.00;0.00;0.62;0.00;0.00;0.62;1.70;1.10;;;23.90;24.00;;;;;;2265566;61;20363;-63
2023/03/30 03:55:46;0.00;0.00;0.62;0.00;0.00;0.62;1.30;0.80;;;23.80;24.00;;;;;;2269103;61;20390;-64
2023/03/30 03:58:31;0.00;0.00;0.62;0.00;0.00;0.62;1.30;0.90;;;23.80;24.00;;;;;;2264538;61;20363;-62
2023/03/30 04:01:16;0.00;0.00;0.62;0.00;0.00;0.62;1.40;0.90;;;23.80;24.00;;;;;;2265505;61;20391;-63
2023/03/30 04:04:00;0.00;0.00;0.62;0.00;0.00;0.62;1.33;0.87;;;23.80;24.00;;;;;;2265498;61;20851;-62
2023/03/30 04:06:46;0.00;0.00;0.62;0.00;0.00;0.62;1.50;0.90;;;23.80;24.00;;;;;;2265035;61;20475;-62
2023/03/30 04:09:32;0.00;0.00;0.62;0.00;0.00;0.62;1.60;0.80;;;23.80;24.00;;;;;;2265392;61;20814;-62
2023/03/30 04:12:49;0.00;0.00;0.62;0.00;0.00;0.62;1.50;0.90;;;23.80;24.00;;;;;;2264955;61;20363;-62
2023/03/30 04:15:52;0.00;0.00;0.62;0.00;0.00;0.62;1.40;0.80;;;23.80;24.00;;;;;;2268952;61;20440;-66
2023/03/30 04:19:11;0.00;0.00;0.62;0.00;0.00;0.62;1.40;0.87;;;23.80;24.50;;;;;;2266811;61;20451;-62
2023/03/30 04:22:13;0.00;0.00;0.62;0.00;0.00;0.62;1.53;1.00;;;23.80;24.00;;;;;;2265224;61;20355;-62
2023/03/30 04:25:31;0.00;0.00;0.62;0.00;0.00;0.62;1.40;0.90;;;23.80;24.00;;;;;;2262258;61;20447;-62
2023/03/30 04:28:34;0.00;0.00;0.62;0.00;0.00;0.62;2.03;0.90;;;23.80;24.00;;;;;;2265185;61;20362;-62
2023/03/30 04:31:40;0.00;0.00;0.62;0.00;0.00;0.62;1.57;0.90;;;23.80;24.00;;;;;;2265719;61;20355;-62
2023/03/30 04:34:30;0.00;0.00;0.62;0.00;0.00;0.62;1.40;0.90;;;23.80;24.00;;;;;;2268606;61;20495;-62
2023/03/30 04:37:32;0.00;0.00;0.62;0.00;0.00;0.62;1.50;0.90;;;23.80;24.00;;;;;;2268569;61;20386;-63
2023/03/30 04:40:23;0.00;0.00;0.62;0.00;0.00;0.62;1.67;0.80;;;23.80;24.00;;;;;;2268655;61;20514;-62
2023/03/30 04:43:26;0.00;0.00;0.62;0.00;0.00;0.62;1.37;0.80;;;23.80;24.00;;;;;;2268166;61;20382;-63
2023/03/30 04:46:40;0.00;0.00;0.62;0.00;0.00;0.62;1.63;1.20;;;23.80;24.00;;;;;;2251890;61;20387;-61
2023/03/30 04:49:44;0.00;0.00;0.62;0.00;0.00;0.62;1.47;0.83;;;23.80;24.00;;;;;;2250584;61;20366;-62
2023/03/30 04:52:55;0.00;0.00;0.62;0.00;0.00;0.62;1.50;1.03;;;23.80;24.00;;;;;;2251639;61;20362;-64
2023/03/30 04:56:00;0.00;0.00;0.62;0.00;0.00;0.62;1.60;0.90;;;23.80;24.10;;;;;;2250839;61;20387;-62
2023/03/30 04:59:15;0.00;0.00;0.62;0.00;0.00;0.62;1.67;1.00;;;23.80;24.00;;;;;;2242772;61;20392;-62
2023/03/30 05:02:23;0.00;0.00;0.62;0.00;0.00;0.62;1.60;1.13;;;23.80;24.00;;;;;;2239696;61;20370;-62
2023/03/30 05:05:37;0.00;0.00;0.62;0.00;0.00;0.62;1.40;0.80;;;23.80;24.00;;;;;;2236457;61;20361;-62
2023/03/30 05:08:33;0.00;0.00;0.62;0.00;0.00;0.62;1.53;0.80;;;23.80;24.00;;;;;;2243952;61;20809;-64
2023/03/30 05:11:56;0.00;0.00;0.62;0.00;0.00;0.62;1.50;0.90;;;23.70;24.00;;;;;;2243027;61;20380;-62
2023/03/30 05:14:55;0.00;0.00;0.62;0.00;0.00;0.62;2.33;0.80;;;23.70;24.00;;;;;;2243664;61;20396;-62
2023/03/30 05:17:48;0.00;0.00;0.62;0.00;0.00;0.62;1.50;0.83;;;23.70;24.00;;;;;;2240231;61;20428;-64
2023/03/30 05:20:38;0.00;0.00;0.62;0.00;0.00;0.62;1.33;0.80;;;23.70;24.00;;;;;;2240037;61;20420;-62
2023/03/30 05:23:43;0.00;0.00;0.62;0.00;0.00;0.62;1.50;0.90;;;23.70;24.00;;;;;;2263405;61;20383;-62
2023/03/30 05:26:55;0.00;0.00;0.62;0.00;0.00;0.62;1.33;0.90;;;23.70;24.00;;;;;;2268040;61;20838;-62
2023/03/30 05:29:49;0.00;0.00;0.62;0.00;0.00;0.62;1.83;0.83;;;23.70;24.00;;;;;;2268516;61;20355;-62
2023/03/30 05:33:14;0.00;0.00;0.62;0.00;0.00;0.62;1.30;0.87;;;23.80;24.10;;;;;;2251065;61;20911;-62
2023/03/30 05:36:18;0.00;0.00;0.62;0.00;0.00;0.62;1.50;0.90;;;23.80;24.10;;;;;;2251322;61;20421;-62
2023/03/30 05:39:35;0.00;0.00;0.62;0.00;0.00;0.62;1.73;1.10;;;23.80;24.10;;;;;;2265928;61;20402;-65
2023/03/30 05:42:21;0.00;0.00;0.62;0.00;0.00;0.62;1.40;0.90;;;23.80;24.10;;;;;;2267915;61;20403;-66
2023/03/30 05:45:21;0.00;0.00;0.62;0.00;0.00;0.62;1.50;0.90;;;23.80;24.10;;;;;;2265438;61;20938;-62
2023/03/30 05:48:27;0.00;0.00;0.62;0.00;0.00;0.62;2.00;1.33;;;23.80;24.10;;;;;;2265038;61;20371;-62
2023/03/30 05:51:44;0.00;0.00;0.62;0.00;0.00;0.62;1.60;1.20;;;23.80;24.10;;;;;;2267749;61;20413;-63
2023/03/30 05:54:39;0.00;0.00;0.62;0.00;0.00;0.62;1.70;1.10;;;23.70;24.00;;;;;;2265633;61;20873;-63
2023/03/30 05:57:41;0.00;0.00;0.62;0.00;0.00;0.62;1.77;1.20;;;23.70;24.00;;;;;;2268138;61;20463;-62
2023/03/30 06:00:57;0.00;0.00;0.62;0.00;0.00;0.62;1.60;1.00;;;23.70;24.10;;;;;;2266801;61;21051;-62
2023/03/30 06:03:52;0.00;0.00;0.62;0.00;0.00;0.62;1.73;1.17;;;23.70;24.00;;;;;;2264795;61;20394;-63
2023/03/30 06:06:37;0.00;0.00;0.62;0.00;0.00;0.62;1.60;1.07;;;23.80;24.10;;;;;;2265222;61;20379;-61
2023/03/30 06:09:22;0.00;0.00;0.62;0.00;0.00;0.62;1.93;1.33;;;23.70;24.00;;;;;;2265308;61;20765;-63
2023/03/30 06:12:08;0.00;0.00;0.62;0.00;0.00;0.62;1.70;1.17;;;23.70;24.00;;;;;;2261660;61;21191;-62
2023/03/30 06:14:54;0.00;0.00;0.62;0.00;0.00;0.62;2.23;1.53;;;23.80;24.10;;;;;;2265321;61;20960;-63
2023/03/30 06:17:58;0.00;0.00;0.62;0.00;0.00;0.62;2.13;1.40;;;23.70;24.00;;;;;;2268207;61;20355;-62
2023/03/30 06:20:47;0.00;0.00;0.62;0.00;0.00;0.62;2.30;1.80;;;23.80;24.10;;;;;;2264511;61;20438;-60
2023/03/30 06:23:36;0.00;0.00;0.62;0.00;0.00;0.62;1.50;1.00;;;23.80;24.20;;;;;;2265264;61;20367;-61
2023/03/30 06:26:23;0.00;0.00;0.62;0.00;0.00;0.62;1.60;1.10;;;23.80;24.10;;;;;;2264142;61;20391;-65
2023/03/30 06:29:09;0.00;0.00;0.62;0.00;0.00;0.62;1.70;1.20;;;23.80;24.10;;;;;;2265168;61;20512;-61
2023/03/30 06:31:55;0.00;0.00;0.62;0.00;0.00;0.62;2.10;1.40;;;23.80;24.10;;;;;;2264898;61;20363;-62
2023/03/30 06:35:04;0.00;0.00;0.62;0.00;0.00;0.62;2.17;1.50;;;23.80;24.20;;;;;;2265604;61;21092;-61
2023/03/30 06:37:50;0.00;0.00;0.62;0.00;0.00;0.62;3.43;1.50;;;23.70;24.10;;;;;;2265525;61;20903;-61
2023/03/30 06:40:35;0.00;0.00;0.62;0.00;0.00;0.62;2.27;1.47;;;23.70;24.10;;;;;;2264121;61;20886;-62
2023/03/30 06:43:23;0.00;0.00;0.62;0.00;0.00;0.62;2.30;1.30;;;23.80;24.20;;;;;;2265053;61;20379;-62
2023/03/30 06:46:23;0.00;0.00;0.62;0.00;0.00;0.62;1.93;1.40;;;23.80;24.20;;;;;;2265266;61;20379;-61
2023/03/30 06:49:11;0.00;0.00;0.62;0.00;0.00;0.62;2.13;1.50;;;23.80;24.20;;;;;;2261684;61;20395;-61
2023/03/30 06:52:02;0.00;0.00;0.62;0.00;0.00;0.62;2.17;1.33;;;23.80;24.20;;;;;;2268481;61;20364;-62
2023/03/30 06:54:49;0.00;0.00;0.62;0.00;0.00;0.62;1.90;1.40;;;23.80;24.20;;;;;;2264948;61;20824;-61
2023/03/30 06:57:34;0.00;0.00;0.62;0.00;0.00;0.62;2.13;1.63;;;23.80;24.20;;;;;;2264734;61;20434;-61
2023/03/30 07:00:21;0.00;0.00;0.62;0.00;0.00;0.62;1.83;1.17;;;23.80;24.20;;;;;;2264993;61;20419;-62
2023/03/30 07:03:25;0.00;0.00;0.62;0.00;0.00;0.62;2.13;1.20;;;23.80;24.20;;;;;;2267349;61;20359;-62
2023/03/30 07:06:45;0.00;0.00;0.62;0.00;0.00;0.62;1.90;1.30;;;23.80;24.20;;;;;;2267020;61;20387;-63
2023/03/30 07:09:31;0.00;0.00;0.62;0.00;0.00;0.62;2.37;1.60;;;23.80;24.20;;;;;;2264230;61;20360;-62
2023/03/30 07:12:17;0.00;0.00;0.62;0.00;0.00;0.62;2.70;1.27;;;23.80;24.20;;;;;;2264556;61;20521;-61
2023/03/30 07:15:06;0.00;0.00;0.62;0.00;0.00;0.62;2.10;1.33;;;23.80;24.20;;;;;;2261911;61;20367;-62
2023/03/30 07:17:52;0.00;0.00;0.62;0.00;0.00;0.62;2.00;1.40;;;23.80;24.30;;;;;;2260566;61;20387;-61
2023/03/30 07:20:38;0.00;0.00;0.62;0.00;0.00;0.62;2.40;2.07;;;23.80;24.20;;;;;;2260751;61;20387;-62
2023/03/30 07:23:30;0.00;0.00;0.62;0.00;0.00;0.62;1.90;1.67;;;23.80;24.20;;;;;;2261167;61;20779;-61
2023/03/30 07:26:15;0.00;0.00;0.62;0.00;0.00;0.62;2.43;2.00;;;23.80;24.20;;;;;;2260730;61;20379;-62
2023/03/30 07:29:10;0.00;0.00;0.62;0.00;0.00;0.62;1.70;1.40;;;23.80;24.20;;;;;;2260919;61;20372;-62
2023/03/30 07:31:58;0.00;0.00;0.62;0.00;0.00;0.62;2.23;1.57;;;23.80;24.20;;;;;;2260272;61;20360;-61
2023/03/30 07:34:45;0.00;0.00;0.62;0.00;0.00;0.62;1.70;1.50;;;23.80;24.20;;;;;;2264291;61;20403;-62
2023/03/30 07:37:30;0.00;0.00;0.62;0.00;0.00;0.62;2.10;1.50;;;23.80;24.20;;;;;;2261725;61;20917;-63
2023/03/30 07:40:16;0.00;0.00;0.62;0.00;0.00;0.62;2.23;1.70;;;23.80;24.20;;;;;;2260477;61;20430;-61
2023/03/30 07:43:01;0.00;0.00;0.62;0.00;0.00;0.62;2.03;1.67;;;23.80;24.30;;;;;;2261809;61;20363;-62
2023/03/30 07:45:47;0.00;0.00;0.62;0.00;0.00;0.62;4.43;1.73;;;23.80;24.20;;;;;;2261429;61;20364;-61
2023/03/30 07:48:40;0.00;0.00;0.62;0.00;0.00;0.62;2.20;1.70;;;23.80;24.30;;;;;;2261318;61;20769;-64
2023/03/30 07:51:25;0.00;0.00;0.62;0.00;0.00;0.62;2.63;1.77;;;23.80;24.20;;;;;;2261677;61;20360;-62
2023/03/30 07:54:22;0.00;0.00;0.62;0.00;0.00;0.62;3.17;1.80;;;23.80;24.20;;;;;;2261177;61;20365;-61
2023/03/30 07:57:30;0.00;0.00;0.62;0.00;0.00;0.62;2.57;2.00;;;23.90;24.30;;;;;;2261816;61;20383;-62
2023/03/30 08:00:18;0.00;0.00;0.62;0.00;0.00;0.62;2.40;1.73;;;23.90;24.30;;;;;;2261384;61;20515;-61
2023/03/30 08:03:26;0.00;0.00;0.62;0.00;0.00;0.62;2.60;2.00;;;23.80;24.30;;;;;;2263916;61;20464;-61
2023/03/30 08:06:11;0.00;0.00;0.62;0.00;0.00;0.62;2.77;1.90;;;23.80;24.30;;;;;;2261820;61;20476;-61
2023/03/30 08:08:57;0.00;0.00;0.62;0.00;0.00;0.62;2.10;1.90;;;23.80;24.30;;;;;;2261096;61;20440;-62
2023/03/30 08:11:42;0.00;0.00;0.62;0.00;0.00;0.62;2.20;1.50;;;23.90;24.30;;;;;;2261162;61;20356;-61
2023/03/30 08:14:27;0.00;0.00;0.62;0.00;0.00;0.62;2.83;2.23;;;23.80;24.30;;;;;;2264950;61;20387;-61
2023/03/30 08:17:13;0.00;0.00;0.62;0.00;0.00;0.62;2.17;1.67;;;23.90;24.30;;;;;;2264042;61;20488;-61
2023/03/30 08:20:00;0.00;0.00;0.62;0.00;0.00;0.62;1.97;1.63;;;23.90;24.30;;;;;;2266791;61;20974;-61
2023/03/30 08:22:46;0.00;0.00;0.62;0.00;0.00;0.62;2.50;2.10;;;23.90;24.30;;;;;;2268904;61;20379;-63
2023/03/30 08:25:31;0.00;0.00;0.62;0.00;0.00;0.62;2.63;1.93;;;23.90;24.30;;;;;;2268192;61;20398;-62
2023/03/30 08:28:16;0.00;0.00;0.62;0.00;0.00;0.62;2.00;1.47;;;23.90;24.30;;;;;;2268901;61;20367;-62
2023/03/30 08:31:05;0.00;0.00;0.62;0.00;0.00;0.62;2.40;1.60;;;23.90;24.30;;;;;;2267981;61;20347;-62
2023/03/30 08:33:50;0.00;0.00;0.62;0.00;0.00;0.62;3.00;2.17;;;23.90;24.30;;;;;;2268651;61;20359;-61
2023/03/30 08:36:36;0.00;0.00;0.62;0.00;0.00;0.62;2.40;1.73;;;23.90;24.30;;;;;;2268832;61;20376;-68
2023/03/30 08:39:21;0.00;0.00;0.62;0.00;0.00;0.62;2.90;2.20;;;23.90;24.70;;;;;;2267797;61;20363;-61
2023/03/30 08:42:28;0.00;0.00;0.62;0.00;0.00;0.62;3.13;2.00;;;23.90;24.30;;;;;;2268928;61;20421;-62
2023/03/30 08:45:13;0.00;0.00;0.62;0.00;0.00;0.62;2.47;1.90;;;23.90;24.40;;;;;;2268405;61;20909;-61
2023/03/30 08:47:59;0.00;0.00;0.62;0.00;0.00;0.62;2.30;1.70;;;23.90;24.30;;;;;;2268395;61;20367;-62
2023/03/30 08:50:52;0.00;0.00;0.62;0.00;0.00;0.62;2.33;1.83;;;23.90;24.40;;;;;;2268624;61;20883;-62
2023/03/30 08:53:38;0.00;0.00;0.62;0.00;0.00;0.62;2.70;1.97;;;23.90;24.40;;;;;;2265184;61;20403;-62
2023/03/30 08:56:28;0.00;0.00;0.62;0.00;0.00;0.62;3.27;2.13;;;23.90;24.40;;;;;;2268741;61;20880;-62
2023/03/30 08:59:25;0.00;0.00;0.62;0.00;0.00;0.62;2.73;1.83;;;24.00;24.40;;;;;;2268516;61;20950;-61
2023/03/30 09:02:18;0.00;0.00;0.62;0.00;0.00;0.62;1.83;1.47;;;23.90;24.40;;;;;;2268139;61;20359;-62
2023/03/30 09:05:09;0.00;0.00;0.62;0.00;0.00;0.62;2.07;1.70;;;23.90;24.40;;;;;;2268859;61;20350;-61
2023/03/30 09:08:02;0.00;0.00;0.62;0.00;0.00;0.62;1.93;1.43;;;24.00;24.50;;;;;;2268298;61;20843;-62
2023/03/30 09:10:55;0.00;0.00;0.62;0.00;0.00;0.62;2.33;1.80;;;24.00;24.40;;;;;;2268097;61;20348;-64
2023/03/30 09:13:44;0.00;0.00;0.62;0.00;0.00;0.62;2.70;1.80;;;23.90;24.40;;;;;;2268924;61;20363;-62
2023/03/30 09:16:38;0.00;0.00;0.62;0.00;0.00;0.62;2.30;2.03;;;24.00;24.50;;;;;;2264732;61;20387;-62
2023/03/30 09:19:31;0.00;0.00;0.62;0.00;0.00;0.62;2.70;2.03;;;24.00;24.50;;;;;;2264983;61;20808;-63
2023/03/30 09:22:18;0.00;0.00;0.62;0.00;0.00;0.62;3.00;2.00;;;24.00;24.50;;;;;;2268335;61;20359;-62
2023/03/30 09:25:14;0.00;0.00;0.62;0.00;0.00;0.62;3.00;1.93;;;24.00;24.50;;;;;;2268190;61;20363;-63
2023/03/30 09:28:09;0.00;0.00;0.62;0.00;0.00;0.62;3.00;2.23;;;24.00;24.50;;;;;;2268748;61;20837;-62
2023/03/30 09:31:00;0.00;0.00;0.62;0.00;0.00;0.62;3.10;1.97;;;24.00;24.50;;;;;;2267662;61;20422;-62
2023/03/30 09:33:49;0.00;0.00;0.62;0.00;0.00;0.62;2.93;1.70;;;24.00;24.50;;;;;;2268659;61;20367;-63
2023/03/30 09:36:40;0.00;0.00;0.62;0.00;0.00;0.62;2.90;2.07;;;24.00;24.50;;;;;;2268640;61;20391;-63
2023/03/30 09:39:27;0.00;0.00;0.62;0.00;0.00;0.62;2.57;2.10;;;24.00;24.50;;;;;;2267869;61;20436;-62
2023/03/30 09:42:32;0.00;0.00;0.62;0.00;0.00;0.62;3.13;2.20;;;24.00;24.50;;;;;;2268454;61;20383;-63
2023/03/30 09:45:26;0.00;0.00;0.62;0.00;0.00;0.62;2.37;1.73;;;24.00;24.50;;;;;;2268463;61;20362;-63
2023/03/30 09:48:15;0.00;0.00;0.62;0.00;0.00;0.62;2.47;1.87;;;24.10;24.60;;;;;;2268457;61;20363;-68
2023/03/30 09:50:59;0.00;0.00;0.62;0.00;0.00;0.62;2.60;1.73;;;24.10;24.50;;;;;;2265128;61;20410;-64
2023/03/30 09:53:46;0.00;0.00;0.62;0.00;0.00;0.62;2.40;1.83;;;24.10;24.50;;;;;;2267444;61;20760;-64
2023/03/30 09:56:43;0.00;0.00;0.62;0.00;0.00;0.62;2.43;1.83;;;24.10;24.50;;;;;;2268462;61;20874;-63
2023/03/30 09:59:33;0.00;0.00;0.62;0.00;0.00;0.62;2.60;2.13;;;24.10;24.50;;;;;;2267883;61;20903;-63
2023/03/30 10:02:21;0.00;0.00;0.62;0.00;0.00;0.62;3.30;2.40;;;24.10;24.50;;;;;;2268227;61;20432;-63
2023/03/30 10:05:15;0.00;0.00;0.62;0.00;0.00;0.62;3.70;2.80;;;24.10;24.50;;;;;;2268545;61;20410;-63
2023/03/30 10:08:04;0.00;0.00;0.62;0.00;0.00;0.62;3.37;1.90;;;24.10;24.50;;;;;;2267995;61;20398;-63
2023/03/30 10:10:54;0.00;0.00;0.62;0.00;0.00;0.62;3.33;2.80;;;24.10;24.50;;;;;;2267926;61;20351;-63
2023/03/30 10:13:42;0.00;0.00;0.62;0.00;0.00;0.62;2.00;1.80;;;24.10;24.60;;;;;;2265133;61;20387;-64
2023/03/30 10:16:33;0.00;0.00;0.62;0.00;0.00;0.62;2.83;2.13;;;24.10;24.60;;;;;;2506238;53;20783;-62
2023/03/30 10:19:21;0.00;0.00;0.62;0.00;0.00;0.62;3.43;2.43;;;24.10;24.60;;;;;;2265026;61;20402;-63
2023/03/30 10:22:16;0.00;0.00;0.62;0.00;0.00;0.62;3.10;2.43;;;24.20;24.60;;;;;;2268435;61;20360;-63
2023/03/30 10:25:13;0.00;0.00;0.62;0.00;0.00;0.62;3.90;2.70;;;24.20;24.60;;;;;;2268295;61;20402;-62
2023/03/30 10:28:03;0.00;0.00;0.62;0.00;0.00;0.62;3.03;2.20;;;24.10;24.60;;;;;;2268643;61;20363;-63
2023/03/30 10:30:53;0.00;0.00;0.62;0.00;0.00;0.62;3.73;2.63;;;24.20;24.60;;;;;;2267229;61;20673;-65
2023/03/30 10:33:41;0.00;0.00;0.62;0.00;0.00;0.62;2.90;1.90;;;24.20;24.60;;;;;;2268472;61;20787;-63
2023/03/30 10:36:32;0.00;0.00;0.62;0.00;0.00;0.62;3.40;2.77;;;24.20;24.60;;;;;;2268168;61;20382;-65
2023/03/30 10:39:23;0.00;0.00;0.62;0.00;0.00;0.62;3.37;2.30;;;24.20;24.70;;;;;;2267790;61;20379;-66
2023/03/30 10:42:14;0.00;0.00;0.62;0.00;0.00;0.62;2.73;2.23;;;24.20;24.60;;;;;;2268675;61;20394;-59
2023/03/30 10:45:01;0.00;0.00;0.62;0.00;0.00;0.62;2.60;1.93;;;24.20;24.60;;;;;;2264469;61;20381;-65
2023/03/30 10:48:01;0.00;0.00;0.62;0.00;0.00;0.62;3.47;2.27;;;24.20;24.60;;;;;;2268859;61;20378;-65
2023/03/30 10:50:54;0.00;0.00;0.62;0.00;0.00;0.62;2.80;2.00;;;24.30;24.70;;;;;;2267945;61;20359;-68
2023/03/30 10:53:51;0.00;0.00;0.62;0.00;0.00;0.62;2.60;2.30;;;24.30;24.80;;;;;;2261916;61;20401;-64
2023/03/30 10:56:42;0.00;0.00;0.62;0.00;0.00;0.62;3.50;2.43;;;24.30;24.80;;;;;;2268469;61;20421;-65
2023/03/30 10:59:54;0.00;0.00;0.62;0.00;0.00;0.62;3.10;2.50;;;24.30;24.80;;;;;;2264543;61;20835;-65
2023/03/30 11:02:52;0.00;0.00;0.62;0.00;0.00;0.62;2.90;2.20;;;24.30;24.90;;;;;;2264824;61;20367;-61
2023/03/30 11:05:41;0.00;0.00;0.62;0.00;0.00;0.62;2.97;2.40;;;24.30;24.90;;;;;;2268284;61;20812;-61
2023/03/30 11:08:31;0.00;0.00;0.62;0.00;0.00;0.62;5.27;2.20;;;24.30;24.90;;;;;;2268044;61;20887;-58
2023/03/30 11:11:21;0.00;0.00;0.62;0.00;0.00;0.62;2.90;2.27;;;24.30;24.90;;;;;;2269110;61;20355;-60
2023/03/30 11:14:14;0.00;0.00;0.62;0.00;0.00;0.62;2.77;2.07;;;24.40;25.00;;;;;;2268518;61;20344;-64
2023/03/30 11:17:07;0.00;0.00;0.62;0.00;0.00;0.62;3.03;1.93;;;24.40;25.00;;;;;;2269103;61;20375;-63
2023/03/30 11:19:56;0.00;0.00;0.62;0.00;0.00;0.62;3.33;2.13;;;24.40;25.00;;;;;;2268807;61;20363;-63
2023/03/30 11:22:47;0.00;0.00;0.62;0.00;0.00;0.62;3.40;2.40;;;24.40;25.10;;;;;;2268408;61;20465;-65
2023/03/30 11:25:39;0.00;0.00;0.62;0.00;0.00;0.62;3.73;2.17;;;24.40;25.20;;;;;;2269208;61;20502;-63